createdAt,value
2019-05-11T00:00:37.606Z,0.00
2019-05-11T00:01:37.597Z,0.00
2019-05-11T00:02:37.593Z,0.00
2019-05-11T00:03:37.583Z,0.00
2019-05-11T00:04:37.581Z,0.00
2019-05-11T00:05:37.576Z,0.00
2019-05-11T00:06:37.565Z,0.00
2019-05-11T00:07:37.561Z,0.00
2019-05-11T00:08:37.559Z,0.00
2019-05-11T00:09:37.552Z,0.00
2019-05-11T00:10:37.557Z,0.00
2019-05-11T00:11:37.538Z,0.00
2019-05-11T00:12:37.533Z,0.00
2019-05-11T00:13:37.528Z,0.00
2019-05-11T00:14:37.522Z,0.00
2019-05-11T00:15:37.515Z,0.00
2019-05-11T00:16:37.510Z,0.00
2019-05-11T00:17:37.504Z,0.00
2019-05-11T00:18:37.497Z,0.00
2019-05-11T00:19:37.491Z,0.00
2019-05-11T00:20:37.486Z,0.00
2019-05-11T00:21:37.480Z,0.00
2019-05-11T00:22:37.475Z,0.00
2019-05-11T00:23:37.536Z,0.00
2019-05-11T00:24:37.473Z,0.00
2019-05-11T00:25:37.460Z,0.00
2019-05-11T00:26:37.450Z,0.00
2019-05-11T00:27:37.444Z,0.00
2019-05-11T00:28:37.440Z,0.00
2019-05-11T00:29:37.449Z,0.00
2019-05-11T00:30:37.427Z,0.00
2019-05-11T00:31:37.422Z,0.00
2019-05-11T00:32:37.418Z,0.00
2019-05-11T00:33:37.410Z,0.00
2019-05-11T00:34:37.403Z,0.00
2019-05-11T00:35:37.398Z,0.00
2019-05-11T00:36:37.392Z,0.00
2019-05-11T00:37:37.389Z,0.00
2019-05-11T00:38:37.378Z,0.00
2019-05-11T00:39:37.442Z,0.00
2019-05-11T00:40:37.371Z,0.00
2019-05-11T00:41:37.363Z,0.00
2019-05-11T00:42:37.359Z,0.00
2019-05-11T00:43:37.349Z,0.00
2019-05-11T00:44:37.343Z,0.00
2019-05-11T00:45:37.369Z,0.00
2019-05-11T00:46:37.407Z,0.00
2019-05-11T00:47:37.332Z,0.00
2019-05-11T00:48:37.326Z,0.00
2019-05-11T00:49:37.312Z,0.00
2019-05-11T00:50:39.819Z,0.00
2019-05-11T00:51:37.302Z,0.00
2019-05-11T00:52:37.295Z,0.00
2019-05-11T00:53:37.289Z,0.00
2019-05-11T00:54:37.281Z,0.00
2019-05-11T00:55:37.277Z,0.00
2019-05-11T00:56:37.271Z,0.00
2019-05-11T00:57:37.266Z,0.00
2019-05-11T00:58:37.257Z,0.00
2019-05-11T00:59:37.251Z,0.00
2019-05-11T01:00:37.253Z,0.00
2019-05-11T01:01:37.239Z,0.00
2019-05-11T01:02:37.236Z,0.00
2019-05-11T01:03:37.226Z,0.00
2019-05-11T01:04:37.239Z,0.00
2019-05-11T01:05:37.229Z,0.00
2019-05-11T01:06:37.207Z,0.00
2019-05-11T01:07:37.202Z,0.00
2019-05-11T01:08:37.195Z,0.00
2019-05-11T01:09:37.189Z,0.00
2019-05-11T01:10:42.068Z,0.00
2019-05-11T01:11:37.178Z,0.00
2019-05-11T01:12:37.171Z,0.00
2019-05-11T01:13:37.169Z,0.00
2019-05-11T01:14:37.157Z,0.00
2019-05-11T01:15:37.152Z,0.00
2019-05-11T01:16:37.145Z,0.00
2019-05-11T01:17:37.139Z,0.00
2019-05-11T01:18:37.131Z,0.00
2019-05-11T01:19:37.125Z,0.00
2019-05-11T01:20:37.119Z,0.00
2019-05-11T01:21:37.112Z,0.00
2019-05-11T01:22:37.134Z,0.00
2019-05-11T01:23:37.100Z,0.00
2019-05-11T01:24:37.094Z,0.00
2019-05-11T01:25:37.086Z,0.00
2019-05-11T01:26:37.089Z,0.00
2019-05-11T01:27:37.072Z,0.00
2019-05-11T01:28:37.067Z,0.00
2019-05-11T01:29:37.076Z,0.00
2019-05-11T01:30:38.751Z,0.00
2019-05-11T01:31:37.045Z,0.00
2019-05-11T01:32:37.050Z,0.00
2019-05-11T01:33:37.035Z,0.00
2019-05-11T01:34:37.021Z,0.00
2019-05-11T01:35:37.020Z,0.00
2019-05-11T01:36:37.017Z,0.00
2019-05-11T01:37:37.016Z,0.00
2019-05-11T01:38:37.002Z,0.00
2019-05-11T01:39:36.994Z,0.00
2019-05-11T01:40:36.989Z,0.00
2019-05-11T01:41:36.997Z,0.00
2019-05-11T01:42:36.975Z,0.00
2019-05-11T01:43:36.971Z,0.00
2019-05-11T01:44:36.961Z,0.00
2019-05-11T01:45:36.963Z,0.00
2019-05-11T01:46:36.949Z,0.00
2019-05-11T01:47:36.946Z,0.00
2019-05-11T01:48:36.936Z,0.00
2019-05-11T01:49:36.932Z,0.00
2019-05-11T01:50:36.931Z,0.00
2019-05-11T01:51:36.923Z,0.00
2019-05-11T01:52:36.911Z,0.00
2019-05-11T01:53:36.904Z,0.00
2019-05-11T01:54:36.895Z,0.00
2019-05-11T01:55:36.889Z,0.00
2019-05-11T01:56:36.883Z,0.00
2019-05-11T01:57:36.876Z,0.00
2019-05-11T01:58:36.869Z,0.00
2019-05-11T01:59:36.867Z,0.00
2019-05-11T02:00:36.857Z,0.00
2019-05-11T02:01:36.850Z,0.00
2019-05-11T02:02:36.844Z,0.00
2019-05-11T02:03:36.840Z,0.00
2019-05-11T02:04:36.831Z,0.00
2019-05-11T02:05:36.859Z,0.00
2019-05-11T02:06:36.815Z,0.00
2019-05-11T02:07:36.811Z,0.00
2019-05-11T02:08:36.795Z,0.00
2019-05-11T02:09:36.795Z,0.00
2019-05-11T02:10:36.787Z,0.00
2019-05-11T02:11:36.780Z,0.00
2019-05-11T02:12:36.774Z,0.00
2019-05-11T02:13:36.767Z,0.00
2019-05-11T02:14:36.759Z,0.00
2019-05-11T02:15:36.755Z,0.00
2019-05-11T02:16:36.752Z,0.00
2019-05-11T02:17:36.740Z,0.00
2019-05-11T02:18:36.731Z,0.00
2019-05-11T02:19:36.729Z,0.00
2019-05-11T02:20:36.719Z,0.00
2019-05-11T02:21:36.707Z,0.00
2019-05-11T02:22:36.704Z,0.00
2019-05-11T02:23:36.701Z,0.00
2019-05-11T02:24:36.690Z,0.00
2019-05-11T02:25:36.690Z,0.00
2019-05-11T02:26:36.678Z,0.00
2019-05-11T02:27:36.670Z,0.00
2019-05-11T02:28:36.665Z,0.00
2019-05-11T02:29:36.667Z,0.00
2019-05-11T02:30:36.648Z,0.00
2019-05-11T02:31:36.647Z,0.00
2019-05-11T02:32:36.634Z,0.00
2019-05-11T02:33:36.630Z,0.00
2019-05-11T02:34:36.622Z,0.00
2019-05-11T02:35:36.615Z,0.00
2019-05-11T02:36:36.613Z,0.00
2019-05-11T02:37:36.601Z,0.00
2019-05-11T02:38:36.586Z,0.00
2019-05-11T02:39:36.587Z,0.00
2019-05-11T02:40:36.588Z,0.00
2019-05-11T02:41:37.567Z,0.00
2019-05-11T02:42:36.566Z,0.00
2019-05-11T02:43:36.559Z,0.00
2019-05-11T02:44:36.561Z,0.00
2019-05-11T02:45:36.615Z,0.00
2019-05-11T02:46:36.538Z,0.00
2019-05-11T02:47:36.529Z,0.00
2019-05-11T02:48:36.524Z,0.00
2019-05-11T02:49:36.519Z,0.00
2019-05-11T02:50:36.507Z,0.00
2019-05-11T02:51:36.503Z,0.00
2019-05-11T02:52:36.495Z,0.00
2019-05-11T02:53:36.487Z,0.00
2019-05-11T02:54:36.479Z,0.00
2019-05-11T02:55:36.472Z,0.00
2019-05-11T02:56:36.474Z,0.00
2019-05-11T02:57:36.459Z,0.00
2019-05-11T02:58:36.451Z,0.00
2019-05-11T02:59:36.442Z,0.00
2019-05-11T03:00:36.436Z,0.00
2019-05-11T03:01:36.429Z,0.00
2019-05-11T03:02:36.423Z,0.00
2019-05-11T03:03:36.419Z,0.00
2019-05-11T03:04:36.413Z,0.00
2019-05-11T03:05:36.400Z,0.00
2019-05-11T03:06:36.393Z,0.00
2019-05-11T03:07:36.389Z,0.00
2019-05-11T03:08:36.391Z,5.63
2019-05-11T03:09:36.369Z,5.63
2019-05-11T03:10:36.371Z,5.63
2019-05-11T03:11:54.043Z,5.63
2019-05-11T03:12:36.358Z,5.63
2019-05-11T03:13:36.345Z,5.63
2019-05-11T03:14:36.337Z,5.63
2019-05-11T03:15:36.334Z,5.63
2019-05-11T03:16:36.320Z,5.63
2019-05-11T03:17:36.315Z,5.63
2019-05-11T03:18:36.319Z,11.25
2019-05-11T03:19:36.297Z,11.25
2019-05-11T03:20:36.292Z,11.25
2019-05-11T03:21:36.283Z,11.25
2019-05-11T03:22:36.283Z,11.25
2019-05-11T03:23:36.269Z,11.25
2019-05-11T03:24:36.258Z,11.25
2019-05-11T03:25:36.256Z,16.88
2019-05-11T03:26:36.253Z,16.88
2019-05-11T03:27:36.237Z,16.88
2019-05-11T03:28:36.231Z,16.88
2019-05-11T03:29:36.221Z,22.50
2019-05-11T03:30:36.229Z,22.50
2019-05-11T03:31:36.209Z,28.13
2019-05-11T03:32:36.264Z,28.13
2019-05-11T03:33:36.194Z,28.13
2019-05-11T03:34:36.186Z,28.13
2019-05-11T03:35:36.181Z,33.75
2019-05-11T03:36:36.173Z,33.75
2019-05-11T03:37:36.168Z,33.75
2019-05-11T03:38:36.153Z,33.75
2019-05-11T03:39:36.146Z,39.38
2019-05-11T03:40:36.142Z,39.38
2019-05-11T03:41:36.136Z,45.00
2019-05-11T03:42:36.145Z,50.63
2019-05-11T03:43:36.120Z,50.63
2019-05-11T03:44:36.114Z,56.25
2019-05-11T03:45:36.105Z,56.25
2019-05-11T03:46:36.100Z,56.25
2019-05-11T03:47:36.095Z,56.25
2019-05-11T03:48:36.084Z,50.63
2019-05-11T03:49:36.081Z,50.63
2019-05-11T03:50:36.069Z,45.00
2019-05-11T03:51:36.074Z,45.00
2019-05-11T03:52:36.056Z,45.00
2019-05-11T03:53:36.051Z,45.00
2019-05-11T03:54:36.043Z,39.38
2019-05-11T03:55:36.036Z,39.38
2019-05-11T03:56:36.025Z,45.00
2019-05-11T03:57:36.033Z,39.38
2019-05-11T03:58:36.011Z,39.38
2019-05-11T03:59:36.007Z,39.38
2019-05-11T04:00:36.004Z,33.75
2019-05-11T04:01:35.991Z,33.75
2019-05-11T04:02:36.005Z,33.75
2019-05-11T04:03:35.978Z,33.75
2019-05-11T04:04:35.970Z,33.75
2019-05-11T04:05:35.963Z,33.75
2019-05-11T04:06:35.957Z,33.75
2019-05-11T04:07:35.950Z,33.75
2019-05-11T04:08:35.944Z,33.75
2019-05-11T04:09:35.937Z,33.75
2019-05-11T04:10:35.932Z,33.75
2019-05-11T04:11:35.922Z,39.38
2019-05-11T04:12:36.035Z,39.38
2019-05-11T04:13:35.908Z,45.00
2019-05-11T04:14:35.906Z,50.63
2019-05-11T04:15:35.893Z,56.25
2019-05-11T04:16:35.889Z,61.88
2019-05-11T04:17:35.881Z,73.13
2019-05-11T04:18:35.876Z,78.75
2019-05-11T04:19:35.874Z,78.75
2019-05-11T04:20:35.857Z,84.38
2019-05-11T04:21:35.856Z,84.38
2019-05-11T04:22:35.850Z,78.75
2019-05-11T04:23:35.841Z,84.38
2019-05-11T04:24:35.832Z,84.38
2019-05-11T04:25:35.827Z,84.38
2019-05-11T04:26:35.816Z,90.00
2019-05-11T04:27:35.820Z,90.00
2019-05-11T04:28:35.801Z,84.38
2019-05-11T04:29:35.800Z,84.38
2019-05-11T04:30:35.794Z,84.38
2019-05-11T04:31:35.789Z,90.00
2019-05-11T04:32:35.778Z,90.00
2019-05-11T04:33:35.774Z,90.00
2019-05-11T04:34:35.775Z,106.88
2019-05-11T04:35:35.758Z,118.13
2019-05-11T04:36:35.752Z,129.38
2019-05-11T04:37:35.756Z,135.00
2019-05-11T04:38:35.744Z,140.63
2019-05-11T04:39:35.738Z,146.25
2019-05-11T04:40:35.727Z,151.88
2019-05-11T04:41:35.727Z,163.13
2019-05-11T04:42:53.381Z,168.75
2019-05-11T04:43:35.705Z,157.50
2019-05-11T04:44:35.706Z,151.88
2019-05-11T04:45:35.699Z,140.63
2019-05-11T04:46:35.690Z,135.00
2019-05-11T04:47:35.695Z,123.75
2019-05-11T04:48:35.677Z,118.13
2019-05-11T04:49:35.671Z,112.50
2019-05-11T04:50:35.664Z,112.50
2019-05-11T04:51:35.661Z,118.13
2019-05-11T04:52:35.653Z,123.75
2019-05-11T04:53:35.651Z,135.00
2019-05-11T04:54:35.640Z,146.25
2019-05-11T04:55:35.636Z,157.50
2019-05-11T04:56:35.631Z,168.75
2019-05-11T04:57:35.623Z,174.38
2019-05-11T04:58:35.623Z,180.00
2019-05-11T04:59:35.626Z,185.63
2019-05-11T05:00:35.610Z,196.88
2019-05-11T05:01:35.602Z,219.38
2019-05-11T05:02:35.591Z,219.38
2019-05-11T05:03:40.847Z,230.63
2019-05-11T05:04:35.581Z,208.13
2019-05-11T05:05:35.577Z,208.13
2019-05-11T05:06:38.826Z,241.88
2019-05-11T05:07:35.565Z,219.38
2019-05-11T05:08:35.561Z,219.38
2019-05-11T05:09:42.011Z,213.75
2019-05-11T05:10:35.547Z,208.13
2019-05-11T05:11:36.644Z,208.13
2019-05-11T05:12:35.543Z,196.88
2019-05-11T05:13:35.533Z,180.00
2019-05-11T05:14:35.527Z,174.38
2019-05-11T05:15:35.527Z,180.00
2019-05-11T05:16:35.517Z,202.50
2019-05-11T05:17:35.513Z,213.75
2019-05-11T05:18:35.505Z,219.38
2019-05-11T05:19:35.501Z,225.00
2019-05-11T05:20:35.488Z,241.88
2019-05-11T05:21:35.492Z,258.75
2019-05-11T05:22:35.492Z,281.25
2019-05-11T05:23:35.489Z,275.63
2019-05-11T05:24:35.478Z,281.25
2019-05-11T05:25:35.471Z,281.25
2019-05-11T05:26:35.471Z,275.63
2019-05-11T05:27:35.459Z,275.63
2019-05-11T05:28:35.455Z,275.63
2019-05-11T05:29:35.450Z,298.13
2019-05-11T05:30:35.445Z,298.13
2019-05-11T05:31:35.439Z,309.38
2019-05-11T05:32:35.438Z,309.38
2019-05-11T05:33:35.429Z,315.00
2019-05-11T05:34:35.424Z,315.00
2019-05-11T05:35:35.477Z,315.00
2019-05-11T05:36:35.414Z,309.38
2019-05-11T05:37:35.409Z,309.38
2019-05-11T05:38:35.406Z,309.38
2019-05-11T05:39:35.401Z,326.25
2019-05-11T05:40:35.397Z,410.63
2019-05-11T05:41:35.411Z,450.00
2019-05-11T05:42:35.383Z,360.00
2019-05-11T05:43:35.376Z,450.00
2019-05-11T05:44:35.372Z,360.00
2019-05-11T05:45:35.392Z,444.38
2019-05-11T05:46:35.365Z,461.25
2019-05-11T05:47:35.359Z,461.25
2019-05-11T05:48:35.358Z,472.50
2019-05-11T05:49:35.351Z,427.50
2019-05-11T05:50:35.345Z,466.88
2019-05-11T05:51:35.337Z,500.63
2019-05-11T05:52:35.337Z,663.75
2019-05-11T05:53:35.335Z,725.63
2019-05-11T05:54:35.326Z,765.00
2019-05-11T05:55:35.333Z,528.75
2019-05-11T05:56:35.320Z,691.88
2019-05-11T05:57:35.318Z,630.00
2019-05-11T05:58:35.344Z,725.63
2019-05-11T05:59:35.315Z,900.00
2019-05-11T06:00:35.304Z,1029.38
2019-05-11T06:01:35.312Z,1051.88
2019-05-11T06:02:35.303Z,1164.38
2019-05-11T06:03:35.299Z,1333.13
2019-05-11T06:04:35.290Z,1299.38
2019-05-11T06:05:35.289Z,1310.63
2019-05-11T06:06:35.292Z,1327.50
2019-05-11T06:07:35.282Z,1316.25
2019-05-11T06:08:35.285Z,1316.25
2019-05-11T06:09:35.279Z,1260.00
2019-05-11T06:10:35.267Z,1125.00
2019-05-11T06:11:35.267Z,1130.63
2019-05-11T06:12:35.265Z,1164.38
2019-05-11T06:13:45.054Z,1119.38
2019-05-11T06:14:35.262Z,894.38
2019-05-11T06:15:35.257Z,871.88
2019-05-11T06:16:35.263Z,967.50
2019-05-11T06:17:35.264Z,905.63
2019-05-11T06:18:35.245Z,1175.63
2019-05-11T06:19:35.250Z,1288.13
2019-05-11T06:20:35.248Z,1170.00
2019-05-11T06:21:35.240Z,1085.63
2019-05-11T06:22:35.235Z,1198.13
2019-05-11T06:23:35.227Z,1215.00
2019-05-11T06:24:35.232Z,1310.63
2019-05-11T06:25:35.228Z,1400.63
2019-05-11T06:26:35.223Z,1378.13
2019-05-11T06:27:35.228Z,1355.63
2019-05-11T06:28:35.222Z,1485.00
2019-05-11T06:29:35.245Z,1541.25
2019-05-11T06:30:35.220Z,1653.75
2019-05-11T06:31:35.229Z,1625.63
2019-05-11T06:32:35.222Z,1569.38
2019-05-11T06:33:35.210Z,1468.13
2019-05-11T06:34:35.209Z,1485.00
2019-05-11T06:35:35.208Z,1518.75
2019-05-11T06:36:35.202Z,1597.50
2019-05-11T06:37:35.221Z,1693.13
2019-05-11T06:38:35.201Z,1771.88
2019-05-11T06:39:35.199Z,1861.88
2019-05-11T06:40:35.203Z,1906.88
2019-05-11T06:41:35.198Z,1901.25
2019-05-11T06:42:35.201Z,1839.38
2019-05-11T06:43:35.194Z,1715.63
2019-05-11T06:44:35.192Z,1698.75
2019-05-11T06:45:35.195Z,1715.63
2019-05-11T06:46:35.416Z,1665.00
2019-05-11T06:47:35.197Z,1676.25
2019-05-11T06:48:35.205Z,1676.25
2019-05-11T06:49:35.190Z,1681.88
2019-05-11T06:50:35.194Z,1665.00
2019-05-11T06:51:35.188Z,1597.50
2019-05-11T06:52:35.186Z,1642.50
2019-05-11T06:53:35.194Z,1665.00
2019-05-11T06:54:35.188Z,1653.75
2019-05-11T06:55:35.187Z,1670.63
2019-05-11T06:56:35.184Z,1710.00
2019-05-11T06:57:35.191Z,1743.75
2019-05-11T06:58:35.183Z,1777.50
2019-05-11T06:59:35.183Z,1850.63
2019-05-11T07:00:35.186Z,1918.13
2019-05-11T07:01:35.184Z,2013.75
2019-05-11T07:02:35.186Z,2019.38
2019-05-11T07:03:35.181Z,1974.38
2019-05-11T07:04:35.179Z,1878.75
2019-05-11T07:05:35.185Z,1788.75
2019-05-11T07:06:35.186Z,1783.13
2019-05-11T07:07:47.170Z,1794.38
2019-05-11T07:08:35.179Z,1816.88
2019-05-11T07:09:35.181Z,1895.63
2019-05-11T07:10:35.181Z,1980.00
2019-05-11T07:11:35.175Z,1929.38
2019-05-11T07:12:35.177Z,1951.88
2019-05-11T07:13:35.187Z,1946.25
2019-05-11T07:14:35.185Z,1895.63
2019-05-11T07:15:35.174Z,1805.63
2019-05-11T07:16:35.183Z,1845.00
2019-05-11T07:17:35.180Z,1715.63
2019-05-11T07:18:35.176Z,1687.50
2019-05-11T07:19:35.178Z,1659.38
2019-05-11T07:20:49.504Z,1558.13
2019-05-11T07:21:35.191Z,1440.00
2019-05-11T07:22:35.176Z,1327.50
2019-05-11T07:23:35.174Z,1338.75
2019-05-11T07:24:35.191Z,1305.00
2019-05-11T07:25:35.190Z,1310.63
2019-05-11T07:26:35.182Z,1316.25
2019-05-11T07:27:35.177Z,1355.63
2019-05-11T07:28:35.186Z,1434.38
2019-05-11T07:29:35.178Z,1485.00
2019-05-11T07:30:35.175Z,1490.63
2019-05-11T07:31:35.176Z,1479.38
2019-05-11T07:32:35.175Z,1591.88
2019-05-11T07:33:35.176Z,1642.50
2019-05-11T07:34:35.172Z,2013.75
2019-05-11T07:35:35.171Z,2182.50
2019-05-11T07:36:35.177Z,2041.88
2019-05-11T07:37:35.180Z,1996.88
2019-05-11T07:38:35.176Z,2115.00
2019-05-11T07:39:35.175Z,2131.88
2019-05-11T07:40:35.173Z,2126.25
2019-05-11T07:41:35.180Z,2109.38
2019-05-11T07:42:37.676Z,2070.00
2019-05-11T07:43:35.172Z,2176.88
2019-05-11T07:44:38.811Z,2323.13
2019-05-11T07:45:35.173Z,2413.13
2019-05-11T07:46:37.540Z,2435.63
2019-05-11T07:47:35.175Z,2469.38
2019-05-11T07:48:35.181Z,2480.63
2019-05-11T07:49:35.175Z,2396.25
2019-05-11T07:50:35.179Z,2385.00
2019-05-11T07:51:35.187Z,2458.13
2019-05-11T07:52:37.545Z,2576.25
2019-05-11T07:53:35.177Z,2756.25
2019-05-11T07:54:35.182Z,2840.63
2019-05-11T07:55:35.173Z,2908.13
2019-05-11T07:56:35.186Z,2947.50
2019-05-11T07:57:35.185Z,2992.50
2019-05-11T07:58:35.179Z,2992.50
2019-05-11T07:59:35.202Z,3088.13
2019-05-11T08:00:37.460Z,3015.00
2019-05-11T08:01:35.188Z,3003.75
2019-05-11T08:02:35.188Z,2953.13
2019-05-11T08:03:35.194Z,2941.88
2019-05-11T08:04:37.712Z,2981.25
2019-05-11T08:05:35.193Z,3015.00
2019-05-11T08:06:35.196Z,3026.25
2019-05-11T08:07:35.199Z,2981.25
2019-05-11T08:08:35.297Z,2868.75
2019-05-11T08:09:35.199Z,2902.50
2019-05-11T08:10:35.199Z,3015.00
2019-05-11T08:11:35.202Z,2998.13
2019-05-11T08:12:35.205Z,2936.25
2019-05-11T08:13:35.212Z,2795.63
2019-05-11T08:14:55.161Z,2745.00
2019-05-11T08:15:35.216Z,2829.38
2019-05-11T08:16:35.214Z,2992.50
2019-05-11T08:17:35.215Z,3071.25
2019-05-11T08:18:35.221Z,3093.75
2019-05-11T08:19:35.221Z,3037.50
2019-05-11T08:20:35.232Z,2874.38
2019-05-11T08:21:35.231Z,2767.50
2019-05-11T08:22:37.552Z,2761.88
2019-05-11T08:23:37.569Z,2880.00
2019-05-11T08:24:37.603Z,3026.25
2019-05-11T08:25:35.243Z,3150.00
2019-05-11T08:26:35.234Z,3195.00
2019-05-11T08:27:35.241Z,3217.50
2019-05-11T08:28:35.244Z,3268.13
2019-05-11T08:29:35.246Z,3268.13
2019-05-11T08:30:35.247Z,3217.50
2019-05-11T08:31:35.254Z,3161.25
2019-05-11T08:32:35.256Z,3060.00
2019-05-11T08:33:35.258Z,2986.88
2019-05-11T08:34:35.262Z,3015.00
2019-05-11T08:35:35.269Z,3026.25
2019-05-11T08:36:37.682Z,2958.75
2019-05-11T08:37:35.271Z,2964.38
2019-05-11T08:38:37.596Z,3031.88
2019-05-11T08:39:35.276Z,3127.50
2019-05-11T08:40:35.282Z,3200.63
2019-05-11T08:41:35.304Z,3211.88
2019-05-11T08:42:37.653Z,3178.13
2019-05-11T08:43:35.289Z,3144.38
2019-05-11T08:44:37.840Z,3195.00
2019-05-11T08:45:35.299Z,3251.25
2019-05-11T08:46:35.299Z,3330.00
2019-05-11T08:47:37.568Z,3369.38
2019-05-11T08:48:35.300Z,3386.25
2019-05-11T08:49:37.910Z,3397.50
2019-05-11T08:50:35.308Z,3341.25
2019-05-11T08:51:35.316Z,3369.38
2019-05-11T08:52:35.319Z,3296.25
2019-05-11T08:53:35.323Z,1878.75
2019-05-11T08:54:35.330Z,495.00
2019-05-11T08:55:35.326Z,450.00
2019-05-11T08:56:35.333Z,438.75
2019-05-11T08:57:35.339Z,421.88
2019-05-11T08:58:37.819Z,416.25
2019-05-11T08:59:35.343Z,405.00
2019-05-11T09:00:35.341Z,405.00
2019-05-11T09:01:35.346Z,405.00
2019-05-11T09:02:35.350Z,410.63
2019-05-11T09:03:35.348Z,433.13
2019-05-11T09:04:39.260Z,450.00
2019-05-11T09:05:35.357Z,450.00
2019-05-11T09:06:37.459Z,427.50
2019-05-11T09:07:35.358Z,416.25
2019-05-11T09:08:35.358Z,416.25
2019-05-11T09:09:37.837Z,433.13
2019-05-11T09:10:37.627Z,450.00
2019-05-11T09:11:35.363Z,433.13
2019-05-11T09:12:35.360Z,410.63
2019-05-11T09:13:35.359Z,388.13
2019-05-11T09:14:35.361Z,365.63
2019-05-11T09:15:39.747Z,337.50
2019-05-11T09:16:35.361Z,286.88
2019-05-11T09:17:35.370Z,292.50
2019-05-11T09:18:35.356Z,326.25
2019-05-11T09:19:35.360Z,348.75
2019-05-11T09:20:37.656Z,371.25
2019-05-11T09:21:35.358Z,382.50
2019-05-11T09:22:35.357Z,399.38
2019-05-11T09:23:39.818Z,365.63
2019-05-11T09:24:35.359Z,393.75
2019-05-11T09:25:35.367Z,382.50
2019-05-11T09:26:35.353Z,371.25
2019-05-11T09:27:37.500Z,393.75
2019-05-11T09:28:35.366Z,393.75
2019-05-11T09:29:35.359Z,388.13
2019-05-11T09:30:37.665Z,382.50
2019-05-11T09:31:35.346Z,393.75
2019-05-11T09:32:35.359Z,376.88
2019-05-11T09:33:35.345Z,382.50
2019-05-11T09:34:37.634Z,354.38
2019-05-11T09:35:46.649Z,365.63
2019-05-11T09:36:35.350Z,348.75
2019-05-11T09:37:35.341Z,331.88
2019-05-11T09:38:35.332Z,326.25
2019-05-11T09:39:35.337Z,343.13
2019-05-11T09:40:35.334Z,360.00
2019-05-11T09:41:35.326Z,376.88
2019-05-11T09:42:35.330Z,388.13
2019-05-11T09:43:37.548Z,399.38
2019-05-11T09:44:35.328Z,410.63
2019-05-11T09:45:47.904Z,421.88
2019-05-11T09:46:35.327Z,427.50
2019-05-11T09:47:35.322Z,421.88
2019-05-11T09:48:37.629Z,421.88
2019-05-11T09:49:46.410Z,421.88
2019-05-11T09:50:35.320Z,438.75
2019-05-11T09:51:37.343Z,444.38
2019-05-11T09:52:35.323Z,444.38
2019-05-11T09:53:35.323Z,444.38
2019-05-11T09:54:35.327Z,450.00
2019-05-11T09:55:35.313Z,455.63
2019-05-11T09:56:35.307Z,455.63
2019-05-11T09:57:35.310Z,450.00
2019-05-11T09:58:35.305Z,461.25
2019-05-11T09:59:35.305Z,472.50
2019-05-11T10:00:35.302Z,478.13
2019-05-11T10:01:37.666Z,483.75
2019-05-11T10:02:35.304Z,489.38
2019-05-11T10:03:35.299Z,495.00
2019-05-11T10:04:35.299Z,500.63
2019-05-11T10:05:35.301Z,506.25
2019-05-11T10:06:35.296Z,506.25
2019-05-11T10:07:35.286Z,506.25
2019-05-11T10:08:35.308Z,511.88
2019-05-11T10:09:35.297Z,511.88
2019-05-11T10:10:35.303Z,506.25
2019-05-11T10:11:35.289Z,511.88
2019-05-11T10:12:35.284Z,506.25
2019-05-11T10:13:35.284Z,500.63
2019-05-11T10:14:35.292Z,489.38
2019-05-11T10:15:35.280Z,472.50
2019-05-11T10:16:35.276Z,461.25
2019-05-11T10:17:35.281Z,455.63
2019-05-11T10:18:35.282Z,461.25
2019-05-11T10:19:35.275Z,478.13
2019-05-11T10:20:35.277Z,506.25
2019-05-11T10:21:35.273Z,528.75
2019-05-11T10:22:35.272Z,534.38
2019-05-11T10:23:35.270Z,534.38
2019-05-11T10:24:35.273Z,528.75
2019-05-11T10:25:35.279Z,517.50
2019-05-11T10:26:35.269Z,495.00
2019-05-11T10:27:35.268Z,472.50
2019-05-11T10:28:35.261Z,461.25
2019-05-11T10:29:35.272Z,450.00
2019-05-11T10:30:35.264Z,438.75
2019-05-11T10:31:35.271Z,427.50
2019-05-11T10:32:37.745Z,421.88
2019-05-11T10:33:35.260Z,416.25
2019-05-11T10:34:35.259Z,416.25
2019-05-11T10:35:37.670Z,416.25
2019-05-11T10:36:35.261Z,421.88
2019-05-11T10:37:35.263Z,421.88
2019-05-11T10:38:35.252Z,427.50
2019-05-11T10:39:35.254Z,433.13
2019-05-11T10:40:35.252Z,433.13
2019-05-11T10:41:35.253Z,427.50
2019-05-11T10:42:37.733Z,421.88
2019-05-11T10:43:35.248Z,421.88
2019-05-11T10:44:35.245Z,416.25
2019-05-11T10:45:37.741Z,416.25
2019-05-11T10:46:35.241Z,421.88
2019-05-11T10:47:35.243Z,427.50
2019-05-11T10:48:35.245Z,433.13
2019-05-11T10:49:35.240Z,433.13
2019-05-11T10:50:35.237Z,427.50
2019-05-11T10:51:35.236Z,421.88
2019-05-11T10:52:37.256Z,416.25
2019-05-11T10:53:35.239Z,410.63
2019-05-11T10:54:35.234Z,405.00
2019-05-11T10:55:35.235Z,393.75
2019-05-11T10:56:35.233Z,382.50
2019-05-11T10:57:35.231Z,371.25
2019-05-11T10:58:35.230Z,365.63
2019-05-11T10:59:35.226Z,354.38
2019-05-11T11:00:35.226Z,354.38
2019-05-11T11:01:35.223Z,354.38
2019-05-11T11:02:35.234Z,360.00
2019-05-11T11:03:37.592Z,365.63
2019-05-11T11:04:35.221Z,371.25
2019-05-11T11:05:35.222Z,376.88
2019-05-11T11:06:35.225Z,382.50
2019-05-11T11:07:35.224Z,388.13
2019-05-11T11:08:35.218Z,388.13
2019-05-11T11:09:35.213Z,393.75
2019-05-11T11:10:35.213Z,388.13
2019-05-11T11:11:35.215Z,388.13
2019-05-11T11:12:35.219Z,388.13
2019-05-11T11:13:35.213Z,388.13
2019-05-11T11:14:37.521Z,382.50
2019-05-11T11:15:35.208Z,371.25
2019-05-11T11:16:39.670Z,365.63
2019-05-11T11:17:35.214Z,365.63
2019-05-11T11:18:35.203Z,365.63
2019-05-11T11:19:35.202Z,365.63
2019-05-11T11:20:35.210Z,371.25
2019-05-11T11:21:35.204Z,376.88
2019-05-11T11:22:40.227Z,382.50
2019-05-11T11:23:35.195Z,382.50
2019-05-11T11:24:37.426Z,388.13
2019-05-11T11:25:37.488Z,388.13
2019-05-11T11:26:35.193Z,388.13
2019-05-11T11:27:35.193Z,388.13
2019-05-11T11:28:35.194Z,382.50
2019-05-11T11:29:35.191Z,382.50
2019-05-11T11:30:35.193Z,376.88
2019-05-11T11:31:35.186Z,376.88
2019-05-11T11:32:35.181Z,382.50
2019-05-11T11:33:35.180Z,382.50
2019-05-11T11:34:35.177Z,388.13
2019-05-11T11:35:35.177Z,388.13
2019-05-11T11:36:37.486Z,393.75
2019-05-11T11:37:35.174Z,405.00
2019-05-11T11:38:35.181Z,410.63
2019-05-11T11:39:35.171Z,410.63
2019-05-11T11:40:35.173Z,405.00
2019-05-11T11:41:35.170Z,399.38
2019-05-11T11:42:35.170Z,399.38
2019-05-11T11:43:37.607Z,399.38
2019-05-11T11:44:35.178Z,405.00
2019-05-11T11:45:35.164Z,405.00
2019-05-11T11:46:50.375Z,410.63
2019-05-11T11:47:35.167Z,410.63
2019-05-11T11:48:35.156Z,416.25
2019-05-11T11:49:35.155Z,416.25
2019-05-11T11:50:37.560Z,410.63
2019-05-11T11:51:35.158Z,410.63
2019-05-11T11:52:35.155Z,410.63
2019-05-11T11:53:35.152Z,416.25
2019-05-11T11:54:35.150Z,421.88
2019-05-11T11:55:35.154Z,427.50
2019-05-11T11:56:35.155Z,433.13
2019-05-11T11:57:35.147Z,438.75
2019-05-11T11:58:35.142Z,438.75
2019-05-11T11:59:35.142Z,450.00
2019-05-11T12:00:35.143Z,455.63
2019-05-11T12:01:35.141Z,461.25
2019-05-11T12:02:35.138Z,466.88
2019-05-11T12:03:35.138Z,466.88
2019-05-11T12:04:35.139Z,466.88
2019-05-11T12:05:35.130Z,466.88
2019-05-11T12:06:35.133Z,461.25
2019-05-11T12:07:35.127Z,461.25
2019-05-11T12:08:35.132Z,444.38
2019-05-11T12:09:35.129Z,438.75
2019-05-11T12:10:35.129Z,433.13
2019-05-11T12:11:35.127Z,427.50
2019-05-11T12:12:35.130Z,421.88
2019-05-11T12:13:35.126Z,416.25
2019-05-11T12:14:35.131Z,416.25
2019-05-11T12:15:35.120Z,416.25
2019-05-11T12:16:35.120Z,410.63
2019-05-11T12:17:35.115Z,410.63
2019-05-11T12:18:35.112Z,416.25
2019-05-11T12:19:35.117Z,421.88
2019-05-11T12:20:35.135Z,427.50
2019-05-11T12:21:35.112Z,427.50
2019-05-11T12:22:35.110Z,421.88
2019-05-11T12:23:35.099Z,410.63
2019-05-11T12:24:37.412Z,393.75
2019-05-11T12:25:39.830Z,376.88
2019-05-11T12:26:35.107Z,376.88
2019-05-11T12:27:35.101Z,382.50
2019-05-11T12:28:35.100Z,388.13
2019-05-11T12:29:35.103Z,393.75
2019-05-11T12:30:35.098Z,399.38
2019-05-11T12:31:35.098Z,405.00
2019-05-11T12:32:35.095Z,399.38
2019-05-11T12:33:35.095Z,393.75
2019-05-11T12:34:37.170Z,376.88
2019-05-11T12:35:35.091Z,360.00
2019-05-11T12:36:35.087Z,343.13
2019-05-11T12:37:35.089Z,337.50